createdAt,value
2019-04-29T00:00:57.123Z,13.80
2019-04-29T00:03:29.241Z,14.87
2019-04-29T00:06:01.231Z,14.53
2019-04-29T00:08:33.256Z,13.80
2019-04-29T00:11:05.245Z,21.57
2019-04-29T00:13:37.527Z,22.43
2019-04-29T00:16:31.833Z,21.53
2019-04-29T00:19:37.897Z,20.20
2019-04-29T00:22:10.475Z,19.33
2019-04-29T00:24:42.443Z,21.83
2019-04-29T00:27:14.482Z,19.70
2019-04-29T00:29:46.472Z,17.63
2019-04-29T00:32:18.453Z,15.50
2019-04-29T00:34:51.113Z,16.97
2019-04-29T00:37:40.628Z,20.53
2019-04-29T00:40:30.306Z,23.77
2019-04-29T00:43:25.178Z,19.93
2019-04-29T00:45:57.193Z,18.27
2019-04-29T00:48:29.173Z,17.33
2019-04-29T00:51:01.167Z,15.67
2019-04-29T00:53:33.231Z,15.53
2019-04-29T00:56:05.283Z,15.00
2019-04-29T00:58:37.241Z,18.50
2019-04-29T01:01:15.379Z,18.60
2019-04-29T01:03:47.573Z,20.20
2019-04-29T01:06:19.912Z,19.97
2019-04-29T01:08:51.910Z,19.77
2019-04-29T01:11:24.003Z,22.93
2019-04-29T01:13:55.954Z,23.87
2019-04-29T01:16:27.917Z,19.83
2019-04-29T01:18:59.917Z,20.27
2019-04-29T01:21:31.889Z,20.53
2019-04-29T01:24:04.031Z,19.97
2019-04-29T01:26:57.873Z,19.60
2019-04-29T01:29:30.912Z,19.60
2019-04-29T01:32:03.044Z,21.03
2019-04-29T01:34:41.515Z,15.27
2019-04-29T01:37:13.495Z,15.07
2019-04-29T01:39:59.351Z,14.33
2019-04-29T01:42:36.381Z,14.63
2019-04-29T01:45:08.700Z,16.43
2019-04-29T01:47:40.725Z,20.63
2019-04-29T01:50:12.777Z,14.70
2019-04-29T01:52:44.747Z,20.80
2019-04-29T01:55:16.714Z,20.77
2019-04-29T01:57:48.705Z,20.57
2019-04-29T02:00:20.973Z,19.50
2019-04-29T02:02:53.027Z,21.60
2019-04-29T02:05:25.019Z,21.20
2019-04-29T02:07:57.001Z,19.13
2019-04-29T02:10:34.053Z,20.83
2019-04-29T02:13:06.158Z,21.83
2019-04-29T02:15:38.135Z,22.20
2019-04-29T02:18:10.457Z,23.13
2019-04-29T02:20:42.479Z,22.73
2019-04-29T02:23:22.720Z,20.93
2019-04-29T02:25:54.815Z,14.33
2019-04-29T02:28:26.856Z,14.97
2019-04-29T02:31:00.954Z,15.90
2019-04-29T02:33:32.925Z,21.43
2019-04-29T02:36:04.869Z,16.73
2019-04-29T02:38:42.933Z,19.50
2019-04-29T02:41:29.581Z,19.87
2019-04-29T02:44:03.281Z,17.17
2019-04-29T02:46:35.475Z,16.10
2019-04-29T02:49:07.470Z,13.93
2019-04-29T02:51:48.930Z,16.50
2019-04-29T02:54:21.206Z,17.40
2019-04-29T02:57:04.976Z,17.17
2019-04-29T02:59:41.724Z,19.90
2019-04-29T03:02:35.560Z,16.50
2019-04-29T03:05:14.881Z,18.53
2019-04-29T03:07:46.873Z,14.00
2019-04-29T03:10:18.892Z,19.27
2019-04-29T03:12:51.001Z,18.47
2019-04-29T03:15:34.491Z,23.47
2019-04-29T03:18:06.559Z,18.90
2019-04-29T03:20:55.903Z,22.17
2019-04-29T03:23:28.173Z,22.60
2019-04-29T03:26:00.486Z,20.13
2019-04-29T03:28:32.442Z,23.77
2019-04-29T03:31:04.430Z,21.70
2019-04-29T03:33:36.471Z,22.97
2019-04-29T03:36:08.627Z,23.37
2019-04-29T03:38:41.303Z,23.47
2019-04-29T03:41:13.256Z,25.07
2019-04-29T03:43:45.243Z,26.63
2019-04-29T03:46:17.210Z,29.47
2019-04-29T03:48:49.186Z,30.37
2019-04-29T03:51:21.257Z,23.83
2019-04-29T03:53:53.234Z,23.07
2019-04-29T03:56:25.266Z,21.07
2019-04-29T03:58:57.247Z,21.80
2019-04-29T04:01:48.067Z,23.00
2019-04-29T04:04:37.795Z,21.83
2019-04-29T04:07:27.653Z,18.57
2019-04-29T04:09:59.718Z,21.07
2019-04-29T04:12:31.733Z,22.50
2019-04-29T04:15:03.803Z,17.97
2019-04-29T04:17:41.475Z,17.23
2019-04-29T04:20:15.241Z,14.83
2019-04-29T04:22:47.926Z,14.17
2019-04-29T04:25:20.421Z,17.03
2019-04-29T04:27:52.443Z,16.00
2019-04-29T04:30:24.609Z,12.50
2019-04-29T04:32:56.605Z,15.07
2019-04-29T04:35:28.639Z,14.20
2019-04-29T04:38:00.630Z,14.43
2019-04-29T04:40:36.988Z,16.47
2019-04-29T04:43:08.990Z,12.40
2019-04-29T04:45:40.987Z,13.63
2019-04-29T04:48:13.081Z,12.73
2019-04-29T04:50:45.138Z,13.60
2019-04-29T04:53:17.174Z,11.20
2019-04-29T04:55:50.825Z,15.07
2019-04-29T04:58:22.812Z,17.93
2019-04-29T05:00:54.805Z,18.10
2019-04-29T05:03:26.816Z,16.80
2019-04-29T05:05:58.817Z,24.30
2019-04-29T05:08:31.249Z,22.50
2019-04-29T05:11:03.223Z,18.50
2019-04-29T05:13:36.223Z,23.00
2019-04-29T05:16:08.307Z,21.50
2019-04-29T05:18:40.307Z,26.00
2019-04-29T05:21:12.289Z,22.80
2019-04-29T05:23:44.276Z,22.80
2019-04-29T05:26:16.307Z,30.43
2019-04-29T05:28:48.291Z,25.57
2019-04-29T05:31:20.249Z,21.20
2019-04-29T05:33:52.199Z,22.47
2019-04-29T05:36:40.053Z,27.20
2019-04-29T05:39:16.478Z,23.57
2019-04-29T05:41:48.447Z,25.30
2019-04-29T05:44:48.260Z,25.07
2019-04-29T05:47:52.407Z,26.67
2019-04-29T05:50:41.403Z,26.37
2019-04-29T05:53:25.915Z,31.00
2019-04-29T05:55:57.870Z,29.13
2019-04-29T05:58:32.726Z,27.00
2019-04-29T06:01:11.137Z,27.70
2019-04-29T06:03:44.438Z,27.60
2019-04-29T06:06:16.661Z,31.03
2019-04-29T06:08:48.635Z,29.30
2019-04-29T06:11:23.224Z,25.13
2019-04-29T06:13:54.374Z,21.30
2019-04-29T06:16:26.412Z,19.47
2019-04-29T06:19:00.433Z,19.23
2019-04-29T06:21:32.181Z,18.37
2019-04-29T06:24:06.179Z,17.30
2019-04-29T06:26:37.881Z,16.03
2019-04-29T06:29:10.387Z,15.77
2019-04-29T06:31:42.372Z,19.93
2019-04-29T06:34:14.381Z,15.07
2019-04-29T06:36:46.377Z,15.30
2019-04-29T06:39:18.471Z,15.67
2019-04-29T06:41:50.736Z,15.70
2019-04-29T06:44:22.695Z,14.93
2019-04-29T06:46:56.267Z,16.90
2019-04-29T06:49:28.474Z,13.47
2019-04-29T06:52:00.631Z,17.13
2019-04-29T06:54:32.666Z,16.17
2019-04-29T06:57:04.688Z,20.03
2019-04-29T06:59:36.696Z,20.10
2019-04-29T07:02:09.373Z,20.67
2019-04-29T07:04:42.430Z,22.70
2019-04-29T07:07:14.503Z,18.27
2019-04-29T07:09:46.524Z,18.93
2019-04-29T07:12:18.623Z,15.40
2019-04-29T07:14:50.995Z,22.43
2019-04-29T07:17:23.007Z,17.33
2019-04-29T07:19:57.498Z,19.87
2019-04-29T07:22:31.136Z,19.47
2019-04-29T07:25:02.551Z,20.57
2019-04-29T07:27:42.815Z,19.63
2019-04-29T07:30:09.180Z,17.13
2019-04-29T07:32:41.951Z,16.83
2019-04-29T07:35:15.207Z,15.67
2019-04-29T07:37:47.335Z,18.70
2019-04-29T07:40:19.684Z,16.43
2019-04-29T07:42:51.751Z,20.97
2019-04-29T07:45:58.930Z,18.07
2019-04-29T07:48:28.684Z,22.37
2019-04-29T07:51:04.235Z,27.73
2019-04-29T07:53:44.506Z,22.03
2019-04-29T07:56:08.557Z,20.37
2019-04-29T07:58:40.549Z,17.90
2019-04-29T08:01:12.626Z,24.83
2019-04-29T08:03:44.720Z,19.00
2019-04-29T08:06:17.762Z,22.73
2019-04-29T08:08:55.554Z,19.40
2019-04-29T08:11:24.699Z,18.93
2019-04-29T08:13:56.760Z,17.17
2019-04-29T08:16:28.748Z,14.87
2019-04-29T08:19:01.221Z,18.63
2019-04-29T08:21:33.277Z,16.00
2019-04-29T08:24:05.597Z,21.57
2019-04-29T08:26:41.542Z,18.97
2019-04-29T08:29:11.330Z,16.70
2019-04-29T08:31:43.298Z,35.83
2019-04-29T08:34:18.769Z,28.10
2019-04-29T08:36:49.016Z,14.30
2019-04-29T08:39:25.034Z,14.80
2019-04-29T08:41:58.813Z,18.47
2019-04-29T08:44:54.764Z,26.10
2019-04-29T08:47:31.425Z,16.43
2019-04-29T08:50:01.233Z,17.77
2019-04-29T08:52:33.232Z,17.30
2019-04-29T08:55:05.374Z,14.87
2019-04-29T08:57:37.543Z,15.20
2019-04-29T09:00:11.220Z,12.57
2019-04-29T09:02:47.265Z,13.43
2019-04-29T09:05:17.223Z,13.83
2019-04-29T09:07:52.534Z,15.77
2019-04-29T09:10:23.147Z,13.40
2019-04-29T09:12:55.119Z,11.73
2019-04-29T09:15:27.124Z,12.13
2019-04-29T09:17:59.139Z,45.93
2019-04-29T09:20:31.221Z,20.43
2019-04-29T09:23:08.161Z,13.77
2019-04-29T09:26:03.284Z,15.63
2019-04-29T09:28:35.706Z,16.13
2019-04-29T09:31:07.791Z,15.73
2019-04-29T09:33:39.839Z,15.50
2019-04-29T09:36:13.958Z,17.03
2019-04-29T09:38:45.622Z,19.47
2019-04-29T09:41:35.263Z,18.57
2019-04-29T09:44:35.229Z,20.70
2019-04-29T09:47:10.258Z,19.87
2019-04-29T09:49:42.463Z,22.03
2019-04-29T09:52:15.190Z,15.80
2019-04-29T09:54:47.214Z,19.90
2019-04-29T09:57:19.175Z,19.70
2019-04-29T10:00:07.069Z,20.13
2019-04-29T10:02:50.348Z,17.13
2019-04-29T10:05:43.673Z,20.27
2019-04-29T10:08:15.872Z,32.80
2019-04-29T10:10:47.908Z,30.77
2019-04-29T10:13:20.251Z,27.83
2019-04-29T10:16:08.765Z,20.67
2019-04-29T10:19:00.609Z,19.20
2019-04-29T10:21:31.624Z,21.23
2019-04-29T10:24:03.794Z,16.03
2019-04-29T10:26:36.987Z,26.20
2019-04-29T10:29:13.726Z,44.97
2019-04-29T10:31:46.874Z,46.47
2019-04-29T10:34:19.265Z,18.37
2019-04-29T10:36:52.543Z,19.63
2019-04-29T10:39:42.250Z,16.50
2019-04-29T10:42:14.698Z,17.27
2019-04-29T10:45:08.633Z,16.73
2019-04-29T10:48:06.245Z,13.00
2019-04-29T10:50:40.109Z,17.37
2019-04-29T10:53:15.654Z,13.20
2019-04-29T10:55:46.223Z,14.07
2019-04-29T10:58:21.895Z,13.73
2019-04-29T11:02:01.727Z,12.90
2019-04-29T11:04:31.720Z,12.90
2019-04-29T11:07:14.408Z,15.43
2019-04-29T11:09:52.878Z,18.07
2019-04-29T11:12:24.993Z,19.80
2019-04-29T11:14:57.135Z,15.50
2019-04-29T11:17:29.591Z,14.77
2019-04-29T11:20:01.679Z,11.20
2019-04-29T11:22:39.363Z,14.70
2019-04-29T11:25:32.282Z,13.60
2019-04-29T11:28:04.360Z,13.03
2019-04-29T11:30:39.444Z,10.30
2019-04-29T11:33:26.064Z,11.20
2019-04-29T11:36:05.896Z,12.20
2019-04-29T11:38:38.609Z,14.33
2019-04-29T11:41:12.213Z,17.57
2019-04-29T11:43:46.776Z,14.97
2019-04-29T11:46:21.067Z,12.77
2019-04-29T11:48:53.995Z,15.13
2019-04-29T11:51:34.147Z,14.43
2019-04-29T11:54:08.176Z,14.23
2019-04-29T11:56:39.811Z,12.73
2019-04-29T11:59:33.711Z,13.97
2019-04-29T12:02:24.766Z,14.57
2019-04-29T12:05:08.746Z,11.33
2019-04-29T12:07:41.759Z,12.47
2019-04-29T12:10:13.854Z,17.87
2019-04-29T12:12:47.764Z,18.17
2019-04-29T12:15:32.219Z,15.07
2019-04-29T12:18:11.815Z,11.50
2019-04-29T12:21:05.484Z,31.60
2019-04-29T12:23:37.502Z,26.53
2019-04-29T12:26:09.878Z,26.90
2019-04-29T12:28:42.878Z,16.53
2019-04-29T12:31:24.319Z,15.93
2019-04-29T12:34:13.127Z,14.23
2019-04-29T12:36:55.823Z,15.17
2019-04-29T12:39:44.750Z,16.73
2019-04-29T12:42:41.552Z,16.60
2019-04-29T12:45:23.448Z,18.30
2019-04-29T12:47:55.443Z,18.27
2019-04-29T12:50:27.830Z,16.43
2019-04-29T12:53:00.377Z,15.67
2019-04-29T12:55:45.067Z,13.77
2019-04-29T12:58:12.522Z,17.90
2019-04-29T13:00:48.165Z,21.57
2019-04-29T13:03:30.857Z,15.70
2019-04-29T13:06:39.561Z,11.97
2019-04-29T13:09:17.854Z,16.07
2019-04-29T13:11:56.034Z,28.40
2019-04-29T13:14:28.646Z,29.23
2019-04-29T13:17:14.682Z,65.47
2019-04-29T13:20:07.138Z,84.37
2019-04-29T13:22:36.353Z,93.30
2019-04-29T13:25:10.190Z,39.37
2019-04-29T13:27:42.317Z,25.30
2019-04-29T13:30:16.329Z,24.37
2019-04-29T13:32:48.435Z,36.70
2019-04-29T13:35:20.508Z,41.10
2019-04-29T13:37:52.468Z,40.17
2019-04-29T13:40:25.233Z,32.47
2019-04-29T13:42:57.449Z,31.97
2019-04-29T13:45:39.728Z,20.23
2019-04-29T13:48:55.399Z,24.13
2019-04-29T13:51:35.259Z,33.17
2019-04-29T13:53:59.851Z,28.67
2019-04-29T13:56:39.447Z,30.70
2019-04-29T13:59:09.859Z,16.87
2019-04-29T14:02:01.265Z,20.63
2019-04-29T14:04:34.474Z,18.13
2019-04-29T14:07:06.424Z,12.33
2019-04-29T14:09:39.180Z,16.53
2019-04-29T14:12:46.304Z,16.13
2019-04-29T14:14:45.883Z,15.93
2019-04-29T14:17:26.713Z,11.27
2019-04-29T14:19:51.625Z,15.53
2019-04-29T14:22:23.584Z,23.57
2019-04-29T14:24:55.585Z,28.17
2019-04-29T14:27:27.626Z,30.07
2019-04-29T14:30:03.029Z,36.03
2019-04-29T14:32:38.049Z,35.17
2019-04-29T14:35:17.526Z,33.97
2019-04-29T14:37:55.222Z,33.23
2019-04-29T14:40:23.191Z,35.20
2019-04-29T14:43:28.803Z,55.17
2019-04-29T14:46:34.197Z,39.80
2019-04-29T14:49:21.788Z,36.83
2019-04-29T14:51:53.809Z,31.27
2019-04-29T14:54:25.749Z,26.03
2019-04-29T14:56:57.773Z,29.23
2019-04-29T14:59:30.003Z,30.63
2019-04-29T15:02:16.075Z,28.27
2019-04-29T15:04:45.832Z,26.80
2019-04-29T15:07:18.046Z,34.50
2019-04-29T15:09:58.128Z,29.27
2019-04-29T15:13:06.689Z,29.10
2019-04-29T15:16:14.048Z,32.77
2019-04-29T15:19:20.817Z,29.30
2019-04-29T15:21:57.871Z,23.13
2019-04-29T15:24:32.452Z,23.20
2019-04-29T15:27:05.321Z,29.03
2019-04-29T15:29:37.360Z,59.10
2019-04-29T15:32:11.090Z,26.87
2019-04-29T15:34:43.966Z,23.80
2019-04-29T15:37:16.874Z,22.03
2019-04-29T15:39:48.876Z,32.17
2019-04-29T15:42:20.847Z,31.90
2019-04-29T15:44:55.911Z,28.27
2019-04-29T15:47:30.954Z,19.03
2019-04-29T15:50:03.625Z,16.20
2019-04-29T15:52:34.721Z,16.63
2019-04-29T15:55:07.172Z,21.90
2019-04-29T15:57:39.336Z,32.27
2019-04-29T16:00:21.577Z,19.60
2019-04-29T16:02:46.183Z,20.90
2019-04-29T16:05:30.214Z,32.13
2019-04-29T16:08:32.940Z,24.87
2019-04-29T16:11:33.501Z,33.67
2019-04-29T16:14:09.592Z,23.10
2019-04-29T16:16:38.414Z,23.40
2019-04-29T16:19:10.828Z,22.20
2019-04-29T16:21:42.836Z,21.57
2019-04-29T16:24:26.272Z,27.33
2019-04-29T16:26:53.545Z,27.70
2019-04-29T16:29:22.264Z,27.97
2019-04-29T16:31:54.956Z,29.13
2019-04-29T16:34:28.061Z,27.17
2019-04-29T16:37:00.036Z,28.03
2019-04-29T16:39:32.105Z,28.80
2019-04-29T16:42:21.551Z,29.13
2019-04-29T16:44:53.834Z,32.30
2019-04-29T16:47:26.003Z,44.43
2019-04-29T16:50:04.695Z,46.27
2019-04-29T16:52:31.699Z,46.77
2019-04-29T16:55:05.698Z,44.77
2019-04-29T16:57:37.414Z,35.47
2019-04-29T17:00:14.836Z,30.33
2019-04-29T17:02:46.278Z,29.73
2019-04-29T17:05:18.367Z,32.27
2019-04-29T17:07:50.834Z,32.03
2019-04-29T17:10:29.323Z,28.57
2019-04-29T17:13:01.385Z,29.73
2019-04-29T17:15:33.776Z,31.43
2019-04-29T17:18:07.251Z,31.37
2019-04-29T17:20:39.303Z,30.53
2019-04-29T17:23:11.379Z,30.67
2019-04-29T17:25:43.590Z,27.50
2019-04-29T17:28:29.901Z,27.23
2019-04-29T17:31:23.330Z,31.00
2019-04-29T17:33:59.296Z,31.23
2019-04-29T17:36:31.846Z,31.33
2019-04-29T17:39:04.158Z,34.27
2019-04-29T17:41:36.227Z,39.03
2019-04-29T17:44:45.443Z,30.83
2019-04-29T17:47:47.380Z,31.67
2019-04-29T17:50:30.713Z,30.07
2019-04-29T17:52:57.811Z,28.53
2019-04-29T17:55:42.311Z,24.23
2019-04-29T17:58:19.791Z,29.90
2019-04-29T18:01:15.522Z,28.17
2019-04-29T18:04:05.980Z,31.10
2019-04-29T18:06:46.068Z,29.47
2019-04-29T18:09:37.049Z,28.30
2019-04-29T18:12:27.959Z,34.30
2019-04-29T18:15:00.379Z,27.33
2019-04-29T18:17:36.110Z,30.83
2019-04-29T18:20:33.043Z,28.23
2019-04-29T18:23:19.083Z,36.10
2019-04-29T18:26:17.232Z,27.73
2019-04-29T18:28:49.340Z,30.17
2019-04-29T18:31:21.448Z,27.50
2019-04-29T18:33:53.503Z,25.57
2019-04-29T18:36:26.721Z,29.10
2019-04-29T18:38:59.037Z,29.73
2019-04-29T18:41:31.477Z,29.57
2019-04-29T18:44:05.333Z,28.13
2019-04-29T18:46:37.179Z,30.00
2019-04-29T18:49:09.275Z,26.00
2019-04-29T18:51:41.229Z,22.77
2019-04-29T18:54:13.188Z,25.27
2019-04-29T18:56:45.680Z,26.20
2019-04-29T18:59:19.813Z,28.20
2019-04-29T19:01:51.502Z,27.40
2019-04-29T19:04:38.343Z,24.80
2019-04-29T19:07:10.810Z,29.53
2019-04-29T19:09:43.456Z,26.33
2019-04-29T19:12:15.503Z,29.57
2019-04-29T19:14:47.917Z,34.93
2019-04-29T19:17:21.806Z,34.43
2019-04-29T19:19:55.329Z,36.53
2019-04-29T19:22:27.399Z,34.63
2019-04-29T19:24:59.527Z,47.63
2019-04-29T19:27:37.143Z,46.03
2019-04-29T19:30:07.144Z,48.07
2019-04-29T19:32:39.297Z,47.67
2019-04-29T19:35:11.956Z,41.83
2019-04-29T19:37:45.321Z,38.47
2019-04-29T19:40:17.937Z,41.10
2019-04-29T19:42:50.200Z,42.37
2019-04-29T19:45:22.253Z,43.50
2019-04-29T19:47:55.808Z,66.93
2019-04-29T19:50:28.029Z,49.20
2019-04-29T19:53:00.664Z,42.00
2019-04-29T19:55:41.888Z,48.30
2019-04-29T19:58:12.290Z,43.47
2019-04-29T20:00:43.146Z,41.67
2019-04-29T20:03:22.780Z,35.90
2019-04-29T20:05:54.113Z,35.47
2019-04-29T20:08:46.690Z,33.47
2019-04-29T20:11:11.434Z,35.23
2019-04-29T20:13:37.151Z,34.30
2019-04-29T20:16:34.109Z,34.97
2019-04-29T20:19:28.147Z,39.00
2019-04-29T20:22:05.534Z,37.37
2019-04-29T20:24:36.203Z,39.63
2019-04-29T20:27:08.781Z,35.40
2019-04-29T20:29:40.936Z,35.53
2019-04-29T20:32:13.131Z,35.30
2019-04-29T20:34:46.074Z,30.17
2019-04-29T20:37:19.682Z,30.40
2019-04-29T20:39:56.616Z,34.50
2019-04-29T20:42:26.090Z,30.93
2019-04-29T20:44:58.230Z,28.53
2019-04-29T20:47:38.068Z,28.40
2019-04-29T20:50:08.767Z,30.17
2019-04-29T20:53:01.784Z,32.97
2019-04-29T20:55:31.975Z,35.77
2019-04-29T20:58:06.419Z,31.90
2019-04-29T21:00:40.074Z,33.73
2019-04-29T21:03:12.356Z,30.10
2019-04-29T21:05:49.620Z,29.27
2019-04-29T21:08:19.244Z,32.77
2019-04-29T21:10:53.101Z,29.80
2019-04-29T21:13:43.983Z,26.87
2019-04-29T21:16:30.746Z,30.17
2019-04-29T21:19:08.756Z,28.37
2019-04-29T21:21:41.765Z,29.20
2019-04-29T21:24:18.440Z,25.43
2019-04-29T21:26:48.139Z,26.03
2019-04-29T21:29:20.181Z,23.73
2019-04-29T21:31:58.343Z,24.17
2019-04-29T21:34:29.732Z,24.50
2019-04-29T21:37:15.516Z,22.90
2019-04-29T21:40:00.875Z,24.57
2019-04-29T21:42:48.932Z,24.97
2019-04-29T21:45:21.237Z,23.87
2019-04-29T21:47:54.584Z,24.93
2019-04-29T21:50:33.958Z,29.30
2019-04-29T21:53:02.049Z,25.80
2019-04-29T21:55:35.782Z,25.57
2019-04-29T21:58:07.820Z,30.43
2019-04-29T22:00:40.364Z,33.30
2019-04-29T22:03:12.362Z,34.70
2019-04-29T22:05:45.112Z,37.97
2019-04-29T22:08:20.669Z,35.60
2019-04-29T22:10:50.948Z,32.27
2019-04-29T22:13:24.802Z,33.53
2019-04-29T22:15:56.725Z,36.00
2019-04-29T22:18:28.815Z,32.47
2019-04-29T22:21:01.131Z,35.77
2019-04-29T22:23:35.169Z,32.57
2019-04-29T22:26:07.139Z,34.30
2019-04-29T22:28:39.108Z,34.97
2019-04-29T22:31:11.253Z,37.00
2019-04-29T22:33:43.236Z,36.77
2019-04-29T22:36:18.126Z,35.47
2019-04-29T22:38:51.959Z,37.03
2019-04-29T22:41:42.080Z,38.27
2019-04-29T22:44:16.762Z,42.87
2019-04-29T22:46:48.243Z,36.83
2019-04-29T22:49:25.216Z,36.77
2019-04-29T22:51:57.058Z,44.23
2019-04-29T22:54:27.892Z,41.27
2019-04-29T22:57:00.034Z,42.77
2019-04-29T22:59:31.972Z,39.10
2019-04-29T23:02:05.824Z,31.70
2019-04-29T23:04:37.705Z,32.57
2019-04-29T23:07:09.957Z,30.63
2019-04-29T23:09:46.293Z,34.50
2019-04-29T23:12:18.599Z,36.90
2019-04-29T23:14:49.331Z,34.13
2019-04-29T23:17:21.400Z,33.07
2019-04-29T23:19:57.101Z,32.60
2019-04-29T23:22:44.971Z,34.57
2019-04-29T23:25:38.702Z,30.47
2019-04-29T23:28:10.697Z,30.40
2019-04-29T23:30:42.735Z,33.47
2019-04-29T23:33:21.368Z,28.50
2019-04-29T23:35:48.675Z,36.47
2019-04-29T23:38:21.069Z,37.07
2019-04-29T23:40:54.481Z,33.93
2019-04-29T23:43:28.463Z,36.73
2019-04-29T23:46:00.860Z,32.43
2019-04-29T23:48:39.581Z,36.53
2019-04-29T23:51:06.601Z,37.10
2019-04-29T23:53:38.602Z,38.60
2019-04-29T23:56:10.839Z,39.20
2019-04-29T23:58:55.423Z,39.03
